Flugplatz Leer-Papenburg

EDWF · Dolna Saksonia, Niemcy

4 października 2022

Czas Kod Pogoda Temp. Widoczność Sufit Wiatr METAR/SPECI
05:20
V
12 °C 10 km+ - 200° 200° 4 kt METAR EDWE 040320Z AUTO 20004KT 9999 // FEW046/// SCT120/// 12/10 Q1020
04:50
V
13 °C 10 km+ 10.000 ft 220° 220° 4 kt METAR EDWE 040250Z AUTO 22004KT 9999 // FEW046/// BKN100/// OVC210/// 13/11 Q1021
04:20
V
13 °C 10 km+ 10.000 ft 210° 210° 3 kt METAR EDWE 040220Z AUTO 21003KT 9999 // BKN100/// OVC120/// 13/11 Q1021
03:50
V
12 °C 10 km+ 11.000 ft 200° 200° 4 kt METAR EDWE 040150Z AUTO 20004KT 9999 // OVC110/// 12/11 Q1021
03:20
V
12 °C 10 km+ 13.000 ft 180° 180° 4 kt METAR EDWE 040120Z AUTO 18004KT 9999 // OVC130/// 12/11 Q1022
02:50
V
13 °C 10 km+ 13.000 ft 190° 190° 4 kt METAR EDWE 040050Z AUTO 19004KT 9999 // OVC130/// 13/11 Q1022
02:20
V
13 °C 10 km+ 14.000 ft 200° 200° 2 kt METAR EDWE 040020Z AUTO 20002KT 9999 // OVC140/// 13/11 Q1022
01:50
V
12 °C 10 km+ 14.000 ft 220° 220° 3 kt METAR EDWE 032350Z AUTO 22003KT 9999 // OVC140/// 12/10 Q1022
01:20
V
13 °C 10 km+ 15.000 ft 200° 200° 3 kt METAR EDWE 032320Z AUTO 20003KT 9999 // OVC150/// 13/10 Q1023
00:50
V
12 °C 10 km+ 15.000 ft 190° 190° 3 kt METAR EDWE 032250Z AUTO 19003KT 9999 // OVC150/// 12/11 Q1023
00:20
V
12 °C 10 km+ 16.000 ft 180° 180° 3 kt METAR EDWE 032220Z AUTO 18003KT 9999 // OVC160/// 12/11 Q1023

3 października 2022

Czas Kod Pogoda Temp. Widoczność Sufit Wiatr METAR/SPECI
23:50
V
11 °C 10 km+ 17.000 ft Var Var 2 kt METAR EDWE 032150Z AUTO VRB02KT 9999 // BKN170/// BKN230/// 11/10 Q1023
23:20
V
11 °C 10 km+ 16.000 ft 200° 200° 2 kt METAR EDWE 032120Z AUTO 20002KT 9999 // BKN160/// OVC180/// 11/10 Q1024
22:50
V
10 °C 10 km+ 18.000 ft 200° 200° 2 kt METAR EDWE 032050Z AUTO 20002KT 9999 // OVC180/// 10/10 Q1024
22:20
V
11 °C 10 km+ 18.000 ft 210° 210° 2 kt METAR EDWE 032020Z AUTO 21002KT 9999 // BKN180/// BKN220/// 11/10 Q1024
21:50
V
10 °C 10 km+ 17.000 ft 210° 210° 2 kt METAR EDWE 031950Z AUTO 21002KT 9999 // BKN170/// BKN230/// 10/09 Q1024
21:20
V
10 °C 10 km+ 18.000 ft 210° 210° 1 kt METAR EDWE 031920Z AUTO 21001KT 9999 // BKN180/// BKN230/// 10/10 Q1024
20:50
L
10 °C 1,4 km - 220° 220° 2 kt METAR EDWE 031850Z AUTO 22002KT 1400 R25/P2000N // FEW250/// 10/09 Q1024
20:20
V
11 °C 10 km+ 19.000 ft 250° 250° 2 kt METAR EDWE 031820Z AUTO 25002KT 9999 // BKN190/// 11/10 Q1024
07:20
V
10 °C 10 km+ - 250° 250° 5 kt METAR EDWE 030520Z AUTO 25005KT 9999 // SCT030/// 10/09 Q1024
06:50
V
10 °C 10 km+ - 250° 250° 6 kt METAR EDWE 030450Z AUTO 25006KT 9999 // NCD 10/09 Q1024
06:20
V
10 °C 10 km+ - 260° 260° 6 kt METAR EDWE 030420Z AUTO 26006KT 9999 // FEW024/// 10/09 Q1024
05:50
V
10 °C 10 km+ - 260° 260° 5 kt METAR EDWE 030350Z AUTO 26005KT 9999 // NCD 10/09 Q1024
05:20
V
11 °C 10 km+ - 260° 260° 5 kt METAR EDWE 030320Z AUTO 26005KT 9999 // FEW047/// 11/09 Q1024
04:50
V
11 °C 10 km+ - 260° 260° 6 kt METAR EDWE 030250Z AUTO 26006KT 9999 // FEW029/// SCT050/// 11/10 Q1023
04:20
V
12 °C 10 km+ 4.900 ft 260° 260° 6 kt METAR EDWE 030220Z AUTO 26006KT 9999 // OVC049/// 12/10 Q1023
03:50
V
12 °C 10 km+ 5.000 ft 280° 280° 6 kt METAR EDWE 030150Z AUTO 28006KT 9999 // BKN050/// 12/10 Q1023
03:20
V
12 °C 10 km+ 4.800 ft 280° 280° 6 kt METAR EDWE 030120Z AUTO 28006KT 9999 // OVC048/// 12/10 Q1023
02:50
M
12 °C 10 km+ 2.900 ft 280° 280° 6 kt METAR EDWE 030050Z AUTO 28006KT 9999 // BKN029/// BKN047/// 12/10 Q1023
02:20
V
13 °C 10 km+ 5.000 ft 280° 280° 7 kt METAR EDWE 030020Z AUTO 28007KT 9999 // FEW032/// BKN050/// 13/10 Q1022
01:50
V
11 °C 10 km+ - 250° 250° 6 kt METAR EDWE 022350Z AUTO 25006KT 9999 // FEW037/// SCT049/// 11/10 Q1022
01:20
V
11 °C 10 km+ 4.500 ft 270° 270° 6 kt METAR EDWE 022320Z AUTO 27006KT 230V290 9999 // BKN045/// 11/10 Q1022
00:50
V
11 °C 10 km+ - 280° 280° 7 kt METAR EDWE 022250Z AUTO 28007KT 9999 // NCD 11/09 Q1022
00:20
V
11 °C 10 km+ - 270° 270° 7 kt METAR EDWE 022220Z AUTO 27007KT 9999 // NCD 11/09 Q1022

2 października 2022

Czas Kod Pogoda Temp. Widoczność Sufit Wiatr METAR/SPECI
23:50
V
12 °C 10 km+ - 270° 270° 7 kt METAR EDWE 022150Z AUTO 27007KT 9999 // FEW027/// 12/10 Q1021
23:20
M
12 °C 10 km+ 2.500 ft 270° 270° 6 kt METAR EDWE 022120Z AUTO 27006KT 9999 // BKN025/// BKN053/// 12/11 Q1021
22:50
V
13 °C 10 km+ 4.000 ft 280° 280° 8 kt METAR EDWE 022050Z AUTO 28008KT 250V310 9999 // BKN040/// 13/10 Q1021
22:20
V
13 °C 10 km+ 4.800 ft 290° 290° 9 kt METAR EDWE 022020Z AUTO 29009KT 9999 // BKN048/// BKN058/// 13/09 Q1021
21:50
V
13 °C 10 km+ 4.200 ft 300° 300° 12 kt METAR EDWE 021950Z AUTO 30012KT 9999 // BKN042/// 13/10 Q1020
21:20
V
12 °C 10 km+ - 280° 280° 7 kt METAR EDWE 021920Z AUTO 28007KT 9999 // FEW027/// 12/10 Q1020
20:50
V
13 °C 10 km+ - 290° 290° 7 kt METAR EDWE 021850Z AUTO 29007KT 9999 // FEW026/// SCT047/// 13/10 Q1020
Starsze dane

My i osoby trzecie śledzimy twoje zachowanie w internecie na naszej stronie za pomocą plików cookie. Jeśli kontynuujesz, zakładamy, że zgadzasz się z naszą polityką plików cookie. Dowiedz się więcej